createdAt,value
2023-03-03T00:01:06.395Z,101571.53
2023-03-03T00:03:35.017Z,101563.59
2023-03-03T00:06:04.423Z,101563.50
2023-03-03T00:08:33.948Z,101559.13
2023-03-03T00:11:03.383Z,101557.41
2023-03-03T00:13:33.088Z,101559.22
2023-03-03T00:16:14.697Z,101559.13
2023-03-03T00:18:45.425Z,101549.38
2023-03-03T00:21:32.168Z,101544.97
2023-03-03T00:24:16.869Z,101539.63
2023-03-03T00:26:47.388Z,101543.28
2023-03-03T00:29:36.971Z,101548.63
2023-03-03T00:32:26.078Z,101547.66
2023-03-03T00:34:55.491Z,101546.91
2023-03-03T00:37:34.336Z,101555.69
2023-03-03T00:40:22.187Z,101561.03
2023-03-03T00:42:53.260Z,101561.13
2023-03-03T00:45:29.221Z,101557.63
2023-03-03T00:47:58.887Z,101559.31
2023-03-03T00:50:31.599Z,101552.28
2023-03-03T00:53:04.345Z,101554.19
2023-03-03T00:55:35.096Z,101474.47
2023-03-03T00:58:03.517Z,101555.91
2023-03-03T01:00:33.963Z,101563.81
2023-03-03T01:03:04.688Z,101573.69
2023-03-03T01:05:33.006Z,101577.19
2023-03-03T01:08:01.720Z,101575.38
2023-03-03T01:10:35.673Z,101578.06
2023-03-03T01:13:04.436Z,101576.25
2023-03-03T01:15:32.919Z,101580.75
2023-03-03T01:18:01.271Z,101580.75
2023-03-03T01:20:29.421Z,101566.59
2023-03-03T01:22:57.571Z,101562.97
2023-03-03T01:25:25.803Z,101563.81
2023-03-03T01:27:55.399Z,101557.63
2023-03-03T01:30:23.934Z,101556.66
2023-03-03T01:32:52.083Z,101550.44
2023-03-03T01:35:20.745Z,101555.69
2023-03-03T01:37:49.022Z,101557.63
2023-03-03T01:40:21.235Z,101545.19
2023-03-03T01:42:49.944Z,101544.97
2023-03-03T01:45:22.136Z,101555.69
2023-03-03T01:47:55.073Z,101569.06
2023-03-03T01:50:33.993Z,101571.72
2023-03-03T01:53:05.494Z,101566.38
2023-03-03T01:55:36.751Z,101555.91
2023-03-03T01:58:09.727Z,101552.28
2023-03-03T02:00:42.281Z,101546.06
2023-03-03T02:03:11.020Z,101544.25
2023-03-03T02:05:40.551Z,101543.50
2023-03-03T02:08:11.052Z,101548.63
2023-03-03T02:10:39.233Z,101546.91
2023-03-03T02:13:07.286Z,101550.53
2023-03-03T02:15:37.175Z,101550.31
2023-03-03T02:18:11.125Z,101546.91
2023-03-03T02:20:48.491Z,101549.50
2023-03-03T02:23:23.860Z,101546.91
2023-03-03T02:26:06.923Z,101546.91
2023-03-03T02:28:36.337Z,101555.91
2023-03-03T02:31:06.818Z,101540.28
2023-03-03T02:33:34.972Z,101557.63
2023-03-03T02:36:03.058Z,101555.91
2023-03-03T02:38:37.633Z,101562.97
2023-03-03T02:41:14.398Z,101566.59
2023-03-03T02:43:51.377Z,101520.00
2023-03-03T02:46:19.446Z,101557.63
2023-03-03T02:48:47.625Z,101555.91
2023-03-03T02:51:15.733Z,101559.53
2023-03-03T02:53:43.800Z,101553.22
2023-03-03T02:56:13.362Z,101557.63
2023-03-03T02:58:41.478Z,101545.19
2023-03-03T03:01:09.606Z,101546.91
2023-03-03T03:03:37.987Z,101545.19
2023-03-03T03:06:06.320Z,101539.84
2023-03-03T03:08:34.508Z,101541.56
2023-03-03T03:11:02.907Z,101536.22
2023-03-03T03:13:33.116Z,101537.91
2023-03-03T03:16:01.773Z,101536.22
2023-03-03T03:18:30.057Z,101346.00
2023-03-03T03:20:58.221Z,101541.56
2023-03-03T03:23:26.341Z,101543.28
2023-03-03T03:25:54.480Z,101538.78
2023-03-03T03:28:22.558Z,101541.47
2023-03-03T03:30:52.849Z,101437.03
2023-03-03T03:33:21.184Z,101531.69
2023-03-03T03:35:49.743Z,101534.25
2023-03-03T03:38:18.196Z,101527.31
2023-03-03T03:40:46.268Z,101520.38
2023-03-03T03:43:14.574Z,101519.28
2023-03-03T03:45:43.896Z,101342.78
2023-03-03T03:48:13.998Z,101516.63
2023-03-03T03:50:42.458Z,101518.44
2023-03-03T03:53:10.605Z,101512.13
2023-03-03T03:55:38.691Z,101505.81
2023-03-03T03:58:07.009Z,101509.47
2023-03-03T04:00:35.164Z,101514.81
2023-03-03T04:03:03.447Z,101504.09
2023-03-03T04:05:33.035Z,101505.81
2023-03-03T04:08:01.097Z,101509.47
2023-03-03T04:10:29.229Z,101507.94
2023-03-03T04:12:57.295Z,101507.72
2023-03-03T04:15:25.800Z,101514.81
2023-03-03T04:17:53.920Z,101521.09
2023-03-03T04:20:22.139Z,101530.88
2023-03-03T04:22:52.174Z,101509.47
2023-03-03T04:25:20.552Z,101503.25
2023-03-03T04:27:48.725Z,101507.72
2023-03-03T04:30:17.788Z,101512.13
2023-03-03T04:32:45.973Z,101504.94
2023-03-03T04:35:14.149Z,101511.25
2023-03-03T04:37:42.271Z,101504.09
2023-03-03T04:40:13.144Z,101506.78
2023-03-03T04:42:41.248Z,101497.03
2023-03-03T04:45:10.241Z,101504.09
2023-03-03T04:47:38.419Z,101497.03
2023-03-03T04:50:08.123Z,101502.38
2023-03-03T04:52:36.258Z,101499.69
2023-03-03T04:55:04.769Z,101310.75
2023-03-03T04:57:34.284Z,101490.84
2023-03-03T05:00:02.421Z,101487.41
2023-03-03T05:02:30.670Z,101480.34
2023-03-03T05:04:58.792Z,101478.28
2023-03-03T05:07:26.998Z,101481.94
2023-03-03T05:09:55.062Z,101475.63
2023-03-03T05:12:23.161Z,101474.66
2023-03-03T05:14:52.659Z,101469.31
2023-03-03T05:17:20.796Z,101466.63
2023-03-03T05:19:49.068Z,101461.28
2023-03-03T05:22:17.554Z,101463.97
2023-03-03T05:24:49.182Z,101462.97
2023-03-03T05:27:17.555Z,101463.97
2023-03-03T05:29:45.731Z,101462.13
2023-03-03T05:32:15.262Z,101455.94
2023-03-03T05:34:43.404Z,101462.97
2023-03-03T05:37:11.592Z,101461.28
2023-03-03T05:39:39.868Z,101459.31
2023-03-03T05:42:07.975Z,101458.72
2023-03-03T05:44:36.086Z,101464.69
2023-03-03T05:47:04.185Z,101466.53
2023-03-03T05:49:33.713Z,101459.31
2023-03-03T05:52:02.170Z,101455.94
2023-03-03T05:54:30.184Z,101462.97
2023-03-03T05:56:58.491Z,101450.59
2023-03-03T05:59:26.590Z,101461.28
2023-03-03T06:01:54.732Z,101452.38
2023-03-03T06:04:22.815Z,101455.94
2023-03-03T06:06:52.750Z,101470.03
2023-03-03T06:09:21.299Z,101455.63
2023-03-03T06:11:49.439Z,101462.97
2023-03-03T06:14:17.508Z,101474.56
2023-03-03T06:16:45.619Z,101468.34
2023-03-03T06:19:13.764Z,101463.84
2023-03-03T06:21:42.131Z,101470.03
2023-03-03T06:24:11.602Z,101468.34
2023-03-03T06:26:39.707Z,101464.69
2023-03-03T06:29:07.981Z,101374.56
2023-03-03T06:31:36.887Z,101453.78
2023-03-03T06:34:05.013Z,101451.88
2023-03-03T06:36:33.109Z,101442.84
2023-03-03T06:39:01.196Z,101430.88
2023-03-03T06:41:30.906Z,101440.94
2023-03-03T06:44:00.354Z,101441.78
2023-03-03T06:46:28.523Z,101440.69
2023-03-03T06:48:56.614Z,101449.72
2023-03-03T06:51:28.435Z,101446.06
2023-03-03T06:53:58.247Z,101443.38
2023-03-03T06:56:26.936Z,101437.91
2023-03-03T06:58:59.548Z,101430.00
2023-03-03T07:01:36.426Z,101431.69
2023-03-03T07:04:15.288Z,101435.34
2023-03-03T07:06:43.458Z,101446.69
2023-03-03T07:09:20.228Z,101439.50
2023-03-03T07:11:48.629Z,101440.47
2023-03-03T07:14:21.766Z,101443.91
2023-03-03T07:16:57.835Z,101444.84
2023-03-03T07:19:33.175Z,101442.16
2023-03-03T07:22:07.989Z,101435.34
2023-03-03T07:24:36.260Z,101433.78
2023-03-03T07:27:13.960Z,101442.69
2023-03-03T07:29:43.783Z,101434.66
2023-03-03T07:32:26.065Z,101432.75
2023-03-03T07:34:56.271Z,101286.06
2023-03-03T07:37:33.004Z,101431.88
2023-03-03T07:40:02.509Z,101435.41
2023-03-03T07:42:40.264Z,101427.38
2023-03-03T07:45:26.332Z,101427.38
2023-03-03T07:48:02.561Z,101427.38
2023-03-03T07:50:30.824Z,101429.09
2023-03-03T07:53:02.394Z,101427.16
2023-03-03T07:55:37.300Z,101420.94
2023-03-03T07:58:22.401Z,101417.38
2023-03-03T08:01:29.405Z,101405.72
2023-03-03T08:03:59.382Z,101264.47
2023-03-03T08:06:41.528Z,101400.38
2023-03-03T08:09:28.667Z,101393.31
2023-03-03T08:12:00.523Z,101356.69
2023-03-03T08:14:31.597Z,101387.22
2023-03-03T08:17:01.675Z,101399.50
2023-03-03T08:19:32.511Z,101378.97
2023-03-03T08:22:04.313Z,101380.78
2023-03-03T08:24:32.372Z,101379.91
2023-03-03T08:27:00.428Z,101372.75
2023-03-03T08:29:28.522Z,101373.59
2023-03-03T08:31:56.659Z,101366.75
2023-03-03T08:34:24.876Z,101286.75
2023-03-03T08:36:54.388Z,101370.81
2023-03-03T08:39:22.618Z,101358.25
2023-03-03T08:41:50.656Z,101360.94
2023-03-03T08:44:20.040Z,101339.63
2023-03-03T08:46:48.149Z,101257.31
2023-03-03T08:49:17.728Z,101356.44
2023-03-03T08:51:45.814Z,101352.91
2023-03-03T08:54:15.547Z,101350.22
2023-03-03T08:56:43.968Z,101345.97
2023-03-03T08:59:12.330Z,101336.84
2023-03-03T09:01:40.445Z,101346.59
2023-03-03T09:04:08.731Z,101339.63
2023-03-03T09:06:36.848Z,101341.47
2023-03-03T09:09:05.061Z,101325.41
2023-03-03T09:11:35.188Z,101323.56
2023-03-03T09:14:09.054Z,101149.69
2023-03-03T09:16:40.578Z,101320.06
2023-03-03T09:19:23.878Z,101306.69
2023-03-03T09:21:54.969Z,101222.31
2023-03-03T09:24:27.733Z,101229.59
2023-03-03T09:26:58.971Z,101300.59
2023-03-03T09:29:29.380Z,101295.47
2023-03-03T09:31:59.220Z,101304.84
2023-03-03T09:34:39.258Z,101307.41
2023-03-03T09:37:20.046Z,101297.56
2023-03-03T09:39:51.626Z,101303.75
2023-03-03T09:42:57.069Z,101290.38
2023-03-03T09:45:53.080Z,101289.41
2023-03-03T09:48:50.322Z,101283.19
2023-03-03T09:51:39.802Z,101285.03
2023-03-03T09:54:27.875Z,101284.03
2023-03-03T09:57:06.701Z,101283.19
2023-03-03T09:59:51.335Z,101277.94
2023-03-03T10:02:42.573Z,101277.00
2023-03-03T10:05:18.463Z,101271.63
2023-03-03T10:07:56.890Z,101263.59
2023-03-03T10:10:50.200Z,101260.94
2023-03-03T10:13:30.786Z,101264.56
2023-03-03T10:16:28.662Z,101240.22
2023-03-03T10:19:02.480Z,101243.13
2023-03-03T10:21:37.364Z,101239.50
2023-03-03T10:24:19.601Z,101241.22
2023-03-03T10:27:12.338Z,101244.88
2023-03-03T10:29:51.641Z,101226.34
2023-03-03T10:32:45.780Z,101246.56
2023-03-03T10:35:36.756Z,101244.63
2023-03-03T10:38:19.992Z,101148.53
2023-03-03T10:40:56.255Z,101236.94
2023-03-03T10:43:44.537Z,101119.94
2023-03-03T10:46:23.488Z,101223.44
2023-03-03T10:49:13.757Z,101218.09
2023-03-03T10:51:53.756Z,101220.03
2023-03-03T10:54:36.688Z,101214.66
2023-03-03T10:57:15.153Z,101216.59
2023-03-03T10:59:55.930Z,101212.25
2023-03-03T11:02:31.396Z,101204.22
2023-03-03T11:05:24.231Z,101196.41
2023-03-03T11:07:58.982Z,101197.16
2023-03-03T11:10:41.433Z,101187.41
2023-03-03T11:13:17.766Z,101192.88
2023-03-03T11:16:07.299Z,101185.81
2023-03-03T11:18:44.797Z,101183.28
2023-03-03T11:21:24.285Z,101176.22
2023-03-03T11:24:12.606Z,101162.09
2023-03-03T11:26:57.371Z,101163.78
2023-03-03T11:29:37.323Z,101147.72
2023-03-03T11:32:20.269Z,101146.91
2023-03-03T11:34:59.083Z,101146.03
2023-03-03T11:37:36.792Z,101144.34
2023-03-03T11:40:15.214Z,101061.56
2023-03-03T11:42:54.692Z,101143.47
2023-03-03T11:45:28.854Z,101139.00
2023-03-03T11:48:03.674Z,101134.59
2023-03-03T11:50:37.248Z,101127.41
2023-03-03T11:53:26.983Z,101119.16
2023-03-03T11:56:00.272Z,101110.00
2023-03-03T11:58:33.028Z,101102.72
2023-03-03T12:01:09.562Z,101099.06
2023-03-03T12:03:41.808Z,101089.22
2023-03-03T12:06:19.902Z,100933.22
2023-03-03T12:09:11.941Z,101077.41
2023-03-03T12:11:49.880Z,101073.78
2023-03-03T12:14:33.179Z,101070.09
2023-03-03T12:17:04.886Z,101056.13
2023-03-03T12:19:39.936Z,101061.97
2023-03-03T12:22:19.617Z,101053.81
2023-03-03T12:25:19.859Z,101048.44
2023-03-03T12:27:55.470Z,101041.41
2023-03-03T12:30:38.992Z,101035.91
2023-03-03T12:33:22.465Z,100930.41
2023-03-03T12:35:58.206Z,101014.38
2023-03-03T12:38:36.506Z,100996.59
2023-03-03T12:41:11.991Z,100982.50
2023-03-03T12:43:52.695Z,100987.59
2023-03-03T12:46:30.036Z,100974.06
2023-03-03T12:48:58.413Z,100973.34
2023-03-03T12:51:38.402Z,100964.47
2023-03-03T12:54:36.903Z,100953.50
2023-03-03T12:57:17.873Z,100942.53
2023-03-03T12:59:57.120Z,100938.88
2023-03-03T13:02:44.607Z,100928.16
2023-03-03T13:05:23.005Z,100921.97
2023-03-03T13:08:02.764Z,100921.13
2023-03-03T13:10:39.769Z,100910.66
2023-03-03T13:13:15.663Z,100919.44
2023-03-03T13:15:55.776Z,100906.75
2023-03-03T13:18:37.567Z,100912.97
2023-03-03T13:21:12.407Z,100908.72
2023-03-03T13:23:49.311Z,100774.72
2023-03-03T13:26:23.920Z,100903.13
2023-03-03T13:29:03.716Z,100826.28
2023-03-03T13:31:36.319Z,100907.47
2023-03-03T13:34:04.883Z,100905.53
2023-03-03T13:36:41.624Z,100903.81
2023-03-03T13:39:20.200Z,100895.78
2023-03-03T13:41:57.158Z,100905.66
2023-03-03T13:44:32.381Z,100841.69
2023-03-03T13:47:13.104Z,100904.06
2023-03-03T13:50:03.848Z,100902.38
2023-03-03T13:52:35.180Z,100891.94
2023-03-03T13:55:22.560Z,100871.50
2023-03-03T13:58:01.230Z,100872.50
2023-03-03T14:00:41.565Z,100850.34
2023-03-03T14:03:33.777Z,100838.78
2023-03-03T14:06:05.252Z,100825.53
2023-03-03T14:08:49.269Z,100804.97
2023-03-03T14:11:24.891Z,100807.50
2023-03-03T14:14:04.950Z,100604.25
2023-03-03T14:16:50.985Z,100789.50
2023-03-03T14:19:22.891Z,100789.50
2023-03-03T14:22:02.197Z,100704.03
2023-03-03T14:24:30.353Z,100795.56
2023-03-03T14:27:00.873Z,100779.63
2023-03-03T14:29:33.952Z,100607.66
2023-03-03T14:32:22.021Z,100709.16
2023-03-03T14:34:59.520Z,100774.88
2023-03-03T14:37:29.574Z,100725.13
2023-03-03T14:40:16.348Z,100753.44
2023-03-03T14:42:50.079Z,100606.28
2023-03-03T14:45:31.308Z,100733.97
2023-03-03T14:48:07.141Z,100643.22
2023-03-03T14:50:38.126Z,100733.72
2023-03-03T14:53:17.249Z,100731.91
2023-03-03T14:55:47.526Z,100738.06
2023-03-03T14:58:36.388Z,100737.13
2023-03-03T15:01:22.124Z,100724.44
2023-03-03T15:04:00.352Z,100723.59
2023-03-03T15:06:37.970Z,100701.59
2023-03-03T15:09:34.142Z,100713.72
2023-03-03T15:12:03.952Z,100699.38
2023-03-03T15:14:37.086Z,100698.50
2023-03-03T15:17:25.262Z,100531.25
2023-03-03T15:20:16.980Z,100654.41
2023-03-03T15:22:49.610Z,100707.66
2023-03-03T15:25:41.921Z,100698.66
2023-03-03T15:28:22.815Z,100696.91
2023-03-03T15:30:56.532Z,100697.66
2023-03-03T15:33:33.718Z,100685.97
2023-03-03T15:36:10.263Z,100694.84
2023-03-03T15:38:48.717Z,100702.75
2023-03-03T15:41:27.025Z,100689.34
2023-03-03T15:44:06.854Z,100678.63
2023-03-03T15:46:50.795Z,100671.72
2023-03-03T15:49:38.476Z,100668.94
2023-03-03T15:52:22.771Z,100675.13
2023-03-03T15:55:07.274Z,100511.31
2023-03-03T15:57:45.185Z,100563.28
2023-03-03T16:00:36.856Z,100644.09
2023-03-03T16:03:13.769Z,100648.38
2023-03-03T16:05:48.433Z,100636.22
2023-03-03T16:08:21.306Z,100565.03
2023-03-03T16:11:04.050Z,100641.88
2023-03-03T16:13:59.504Z,100634.84
2023-03-03T16:16:37.765Z,100627.34
2023-03-03T16:19:23.547Z,100627.78
2023-03-03T16:22:25.408Z,100649.47
2023-03-03T16:25:08.106Z,100643.28
2023-03-03T16:27:41.232Z,100638.75
2023-03-03T16:30:27.794Z,100640.47
2023-03-03T16:33:09.836Z,100648.63
2023-03-03T16:35:41.084Z,100654.81
2023-03-03T16:38:18.209Z,100649.47
2023-03-03T16:40:54.070Z,100639.75
2023-03-03T16:43:28.900Z,100633.41
2023-03-03T16:46:00.614Z,100636.78
2023-03-03T16:48:39.150Z,100506.25
2023-03-03T16:51:33.729Z,100539.63
2023-03-03T16:54:08.141Z,100624.13
2023-03-03T16:56:44.662Z,100615.38
2023-03-03T16:59:33.644Z,100623.41
2023-03-03T17:02:15.771Z,100614.53
2023-03-03T17:04:48.524Z,100613.69
2023-03-03T17:07:33.705Z,100616.38
2023-03-03T17:10:23.179Z,100614.78
2023-03-03T17:13:16.786Z,100611.56
2023-03-03T17:15:54.689Z,100613.38
2023-03-03T17:18:38.783Z,100610.84
2023-03-03T17:21:17.799Z,100602.13
2023-03-03T17:24:07.390Z,100615.50
2023-03-03T17:26:47.743Z,100604.59
2023-03-03T17:29:33.610Z,100615.78
2023-03-03T17:32:12.304Z,100606.88
2023-03-03T17:34:53.019Z,100607.28
2023-03-03T17:37:32.418Z,100613.34
2023-03-03T17:40:12.792Z,100608.97
2023-03-03T17:42:48.117Z,100606.28
2023-03-03T17:45:19.339Z,100609.97
2023-03-03T17:48:12.602Z,100615.31
2023-03-03T17:50:58.338Z,100605.16
2023-03-03T17:53:40.082Z,100619.94
2023-03-03T17:56:17.971Z,100611.91
2023-03-03T17:59:04.555Z,100611.91
2023-03-03T18:01:50.679Z,100611.91
2023-03-03T18:04:51.992Z,100609.25
2023-03-03T18:07:51.385Z,100607.41
2023-03-03T18:10:42.551Z,100601.22
2023-03-03T18:13:25.861Z,100606.56
2023-03-03T18:16:12.010Z,100595.16
2023-03-03T18:19:00.295Z,100609.25
2023-03-03T18:21:35.268Z,100599.53
2023-03-03T18:24:29.387Z,100596.13
2023-03-03T18:27:13.692Z,100603.88
2023-03-03T18:30:03.484Z,100611.91
2023-03-03T18:32:42.883Z,100604.88
2023-03-03T18:35:29.146Z,100604.88
2023-03-03T18:37:57.642Z,100601.47
2023-03-03T18:40:32.798Z,100603.47
2023-03-03T18:43:21.162Z,100599.66
2023-03-03T18:45:51.582Z,100594.44
2023-03-03T18:48:22.184Z,100600.91
2023-03-03T18:50:53.098Z,100603.47
2023-03-03T18:53:26.872Z,100428.97
2023-03-03T18:55:56.623Z,100480.03
2023-03-03T18:58:41.429Z,100603.72
2023-03-03T19:01:40.196Z,100608.81
2023-03-03T19:04:19.408Z,100591.31
2023-03-03T19:07:18.949Z,100591.03
2023-03-03T19:10:01.525Z,100605.41
2023-03-03T19:12:48.927Z,100585.69
2023-03-03T19:15:50.313Z,100592.03
2023-03-03T19:18:23.873Z,100594.72
2023-03-03T19:20:57.281Z,100594.72
2023-03-03T19:23:47.551Z,100589.34
2023-03-03T19:26:55.762Z,100597.53
2023-03-03T19:29:43.921Z,100493.88
2023-03-03T19:32:28.512Z,100585.97
2023-03-03T19:35:05.579Z,100504.91
2023-03-03T19:37:44.399Z,100509.06
2023-03-03T19:40:22.328Z,100586.94
2023-03-03T19:43:00.646Z,100580.88
2023-03-03T19:45:41.977Z,100584.28
2023-03-03T19:48:23.062Z,100582.59
2023-03-03T19:50:55.172Z,100580.59
2023-03-03T19:53:33.645Z,100573.56
2023-03-03T19:56:19.685Z,100583.41
2023-03-03T19:59:13.842Z,100511.41
2023-03-03T20:01:55.866Z,100589.63
2023-03-03T20:04:53.349Z,100576.25
2023-03-03T20:07:30.120Z,100574.44
2023-03-03T20:10:08.763Z,100567.34
2023-03-03T20:12:53.439Z,100577.22
2023-03-03T20:15:26.378Z,100574.56
2023-03-03T20:18:04.536Z,100575.25
2023-03-03T20:20:51.541Z,100577.94
2023-03-03T20:23:27.721Z,100584.28
2023-03-03T20:26:01.721Z,100585.97
2023-03-03T20:29:08.477Z,100573.56
2023-03-03T20:31:45.514Z,100580.75
2023-03-03T20:34:21.776Z,100584.28
2023-03-03T20:37:00.384Z,100573.56
2023-03-03T20:39:43.609Z,100572.72
2023-03-03T20:42:26.221Z,100577.22
2023-03-03T20:45:16.937Z,100494.00
2023-03-03T20:47:56.740Z,100586.22
2023-03-03T20:50:31.852Z,100575.53
2023-03-03T20:53:07.773Z,100573.56
2023-03-03T20:55:44.922Z,100573.56
2023-03-03T20:58:19.875Z,100594.97
2023-03-03T21:00:53.898Z,100582.59
2023-03-03T21:03:29.896Z,100585.13
2023-03-03T21:06:00.101Z,100581.59
2023-03-03T21:08:49.673Z,100580.59
2023-03-03T21:11:22.579Z,100577.22
2023-03-03T21:13:54.253Z,100583.41
2023-03-03T21:16:33.414Z,100581.47
2023-03-03T21:19:05.146Z,100586.22
2023-03-03T21:21:34.855Z,100584.28
2023-03-03T21:24:03.004Z,100590.47
2023-03-03T21:26:49.646Z,100586.94
2023-03-03T21:29:28.887Z,100585.97
2023-03-03T21:31:58.369Z,100429.84
2023-03-03T21:34:32.160Z,100587.81
2023-03-03T21:37:01.326Z,100583.28
2023-03-03T21:39:31.241Z,100578.91
2023-03-03T21:42:02.551Z,100575.25
2023-03-03T21:44:36.806Z,100581.59
2023-03-03T21:47:07.135Z,100404.41
2023-03-03T21:49:37.599Z,100575.38
2023-03-03T21:52:06.031Z,100574.56
2023-03-03T21:54:34.130Z,100579.78
2023-03-03T21:57:02.423Z,100459.09
2023-03-03T21:59:30.595Z,100575.25
2023-03-03T22:01:58.718Z,100583.28
2023-03-03T22:04:27.343Z,100483.06
2023-03-03T22:06:56.888Z,100576.97
2023-03-03T22:09:25.181Z,100576.97
2023-03-03T22:11:53.259Z,100574.69
2023-03-03T22:14:21.339Z,100578.78
2023-03-03T22:16:49.496Z,100575.25
2023-03-03T22:19:17.626Z,100585.97
2023-03-03T22:21:46.962Z,100568.22
2023-03-03T22:24:16.480Z,100569.06
2023-03-03T22:26:44.948Z,100571.63
2023-03-03T22:29:13.081Z,100564.81
2023-03-03T22:31:41.374Z,100572.56
2023-03-03T22:34:09.562Z,100570.88
2023-03-03T22:36:37.642Z,100578.91
2023-03-03T22:39:05.836Z,100576.09
2023-03-03T22:41:35.301Z,100566.53
2023-03-03T22:44:03.415Z,100562.88
2023-03-03T22:46:31.575Z,100570.88
2023-03-03T22:48:59.696Z,100562.88
2023-03-03T22:51:27.928Z,100564.53
2023-03-03T22:53:56.017Z,100563.72
2023-03-03T22:56:24.080Z,100552.16
2023-03-03T22:58:53.578Z,100563.84
2023-03-03T23:01:21.594Z,100568.22
2023-03-03T23:03:50.281Z,100568.22
2023-03-03T23:06:18.411Z,100572.72
2023-03-03T23:08:46.509Z,100551.97
2023-03-03T23:11:14.590Z,100562.88
2023-03-03T23:13:42.685Z,100569.91
2023-03-03T23:16:12.276Z,100561.19
2023-03-03T23:18:40.440Z,100569.91
2023-03-03T23:21:08.615Z,100562.88
2023-03-03T23:23:36.642Z,100575.25
2023-03-03T23:26:04.815Z,100575.53
2023-03-03T23:28:32.938Z,100580.59
2023-03-03T23:31:01.063Z,100568.22
2023-03-03T23:33:30.517Z,100568.22
2023-03-03T23:35:58.584Z,100573.56
2023-03-03T23:38:26.647Z,100562.88
2023-03-03T23:40:54.689Z,100557.50
2023-03-03T23:43:22.735Z,100380.78
2023-03-03T23:45:50.802Z,100568.22
2023-03-03T23:48:20.804Z,100541.34
2023-03-03T23:50:50.594Z,100565.53
2023-03-03T23:53:19.344Z,100568.22
2023-03-03T23:55:47.389Z,100569.06
2023-03-03T23:58:15.400Z,100563.72
